createdAt,value
2023-02-14T00:04:35.154Z,0
2023-02-14T00:19:31.589Z,0
2023-02-14T00:34:28.347Z,0
2023-02-14T00:49:23.758Z,0
2023-02-14T01:04:19.610Z,0
2023-02-14T01:19:15.963Z,0
2023-02-14T01:34:12.045Z,0
2023-02-14T01:49:08.289Z,0
2023-02-14T02:04:04.601Z,0
2023-02-14T02:19:00.460Z,0
2023-02-14T02:33:56.199Z,0
2023-02-14T02:48:52.194Z,0
2023-02-14T03:03:48.163Z,0
2023-02-14T03:33:40.053Z,0
2023-02-14T03:48:36.609Z,0
2023-02-14T04:03:32.949Z,0
2023-02-14T04:18:28.817Z,0
2023-02-14T04:33:25.190Z,0
2023-02-14T04:48:21.613Z,0
2023-02-14T05:03:17.987Z,0
2023-02-14T05:18:13.907Z,0
2023-02-14T05:33:09.803Z,0
2023-02-14T05:48:06.105Z,0
2023-02-14T06:03:02.163Z,0
2023-02-14T06:17:58.192Z,0
2023-02-14T06:32:55.278Z,0.02
2023-02-14T06:47:51.399Z,0
2023-02-14T07:02:47.880Z,0.02
2023-02-14T07:17:43.924Z,0.05
2023-02-14T07:32:40.064Z,0.05
2023-02-14T07:47:37.358Z,0.06
2023-02-14T08:02:33.043Z,0.06
2023-02-14T08:17:29.317Z,0.08
2023-02-14T08:32:26.086Z,0.1
2023-02-14T08:47:22.393Z,0.1
2023-02-14T09:02:18.653Z,0.1
2023-02-14T09:17:15.083Z,0.1
2023-02-14T09:32:11.520Z,0.1
2023-02-14T09:47:08.113Z,0.11
2023-02-14T10:02:04.807Z,0.13
2023-02-14T10:17:01.370Z,0.11
2023-02-14T10:31:57.608Z,0.1
2023-02-14T10:46:54.430Z,0.17
2023-02-14T11:01:51.234Z,0.17
2023-02-14T11:16:47.447Z,0.16
2023-02-14T11:31:43.801Z,0.16
2023-02-14T11:46:51.100Z,0.18
2023-02-14T12:01:36.191Z,0.13
2023-02-14T12:16:32.971Z,0.19
2023-02-14T12:31:29.526Z,0.16
2023-02-14T13:01:28.238Z,0.16
2023-02-14T13:16:19.134Z,0.16
2023-02-14T13:31:15.689Z,0.18
2023-02-14T13:46:12.034Z,0.16
2023-02-14T14:01:08.450Z,0.13
2023-02-14T14:16:04.368Z,0.12
2023-02-14T14:31:00.695Z,0.12
2023-02-14T14:45:57.396Z,0.11
2023-02-14T15:00:53.726Z,0.64
2023-02-14T15:15:50.380Z,0.51
2023-02-14T15:30:46.350Z,0.39
2023-02-14T15:45:42.323Z,0.09
2023-02-14T16:00:38.163Z,0.06
2023-02-14T16:15:33.897Z,0.06
2023-02-14T16:30:28.947Z,0.04
2023-02-14T16:45:24.841Z,0.02
2023-02-14T17:00:20.715Z,0.02
2023-02-14T17:15:16.578Z,0
2023-02-14T17:30:12.517Z,0.01
2023-02-14T17:45:08.389Z,0
2023-02-14T18:00:04.199Z,0
2023-02-14T18:14:59.999Z,0
2023-02-14T18:29:56.219Z,0
2023-02-14T18:44:52.212Z,0
2023-02-14T18:59:48.239Z,0
2023-02-14T19:14:43.754Z,0
2023-02-14T19:29:39.315Z,0
2023-02-14T19:44:35.457Z,0
2023-02-14T19:59:32.001Z,0
2023-02-14T20:14:28.160Z,0
2023-02-14T20:29:23.926Z,0
2023-02-14T20:44:20.184Z,0
2023-02-14T20:59:16.656Z,0
2023-02-14T21:14:12.314Z,0
2023-02-14T21:29:08.502Z,0
2023-02-14T21:44:04.562Z,0
2023-02-14T21:59:00.554Z,0
2023-02-14T22:13:57.058Z,0
2023-02-14T22:28:53.189Z,0
2023-02-14T22:43:49.531Z,0
2023-02-14T22:58:45.592Z,0
2023-02-14T23:13:41.917Z,0
2023-02-14T23:28:38.268Z,0
2023-02-14T23:43:34.117Z,0
2023-02-14T23:58:30.754Z,0
